< Typhoon 195111 1951 Season Typhoon 195113 >
Typhoon 195112 (NORA)
General InformationTrack Information on Google Maps || Disaster Info.ResourceGoogle EarthGE AnimationAtom FeedGeoJSON
Detalied Best Track (Time Zone = UTC)
Year Month Day Hour Lat. Long. Pressure (hPa) Wind (kt) Class Image Chart
1951 8 27 00 11.5 144.3 1008 0 2 -- Chart
1951 8 27 06 11.7 143.9 1006 0 2 -- Chart
1951 8 27 12 11.8 143.5 1004 0 2 -- Chart
1951 8 27 18 12.0 143.0 1002 0 2 -- Chart
1951 8 28 00 12.5 141.7 1002 0 2 -- Chart
1951 8 28 06 13.0 140.0 1000 0 2 -- Chart
1951 8 28 12 13.8 138.8 1000 0 2 -- Chart
1951 8 28 18 14.5 137.4 1000 0 2 -- Chart
1951 8 29 00 15.0 136.0 1000 0 2 -- Chart
1951 8 29 06 15.5 134.7 1000 0 2 -- Chart
1951 8 29 12 16.0 133.6 998 0 2 -- Chart
1951 8 29 18 16.4 132.8 998 0 2 -- Chart
1951 8 30 00 16.7 132.0 995 0 2 -- Chart
1951 8 30 06 17.0 131.0 990 0 9 -- Chart
1951 8 30 12 17.6 129.2 990 0 9 -- Chart
1951 8 30 18 17.6 127.7 989 0 9 -- Chart
1951 8 31 00 17.4 125.9 980 0 9 -- Chart
1951 8 31 06 17.3 125.0 980 0 9 -- Chart
1951 8 31 12 17.6 124.0 970 0 9 -- Chart
1951 8 31 18 17.8 123.3 970 0 9 -- Chart
1951 9 1 00 18.0 122.5 970 0 9 -- Chart
1951 9 1 06 18.3 121.0 975 0 9 -- Chart
1951 9 1 12 18.5 119.6 980 0 9 -- Chart
1951 9 1 18 18.6 117.6 980 0 9 -- Chart
1951 9 2 00 18.6 115.9 980 0 9 -- Chart
1951 9 2 06 19.2 114.1 980 0 9 -- Chart
1951 9 2 12 19.6 112.4 980 0 9 -- Chart
1951 9 2 18 19.7 111.0 980 0 9 -- Chart
1951 9 3 00 20.0 108.0 980 0 9 -- Chart
1951 9 3 06 20.0 106.0 980 0 9 -- Chart
1951 9 3 12 20.0 105.5 985 0 9 -- Chart
1951 9 3 18 20.0 105.0 990 0 9 -- Chart
1951 9 4 00 21.0 102.5 992 0 9 -- Chart
Japan Meteorological Agency Best Track Data | Correction Date : 1989-06-01
< Typhoon 195111 1951 Season Typhoon 195113 >

Help